sensor_id;sensor_type;location;lat;lon;timestamp;P1;durP1;ratioP1;P2;durP2;ratioP2
53801;SDS011;39709;53.334;6.534;2022-12-18T00:01:31;9.48;;;3.15;;
53801;SDS011;39709;53.334;6.534;2022-12-18T00:03:59;27.98;;;7.40;;
53801;SDS011;39709;53.334;6.534;2022-12-18T00:06:27;22.77;;;7.68;;
53801;SDS011;39709;53.334;6.534;2022-12-18T00:08:55;9.90;;;3.07;;
53801;SDS011;39709;53.334;6.534;2022-12-18T00:11:23;27.10;;;8.30;;
53801;SDS011;39709;53.334;6.534;2022-12-18T00:13:51;15.10;;;4.60;;
53801;SDS011;39709;53.334;6.534;2022-12-18T00:16:19;11.55;;;4.05;;
53801;SDS011;39709;53.334;6.534;2022-12-18T00:18:47;13.07;;;5.60;;
53801;SDS011;39709;53.334;6.534;2022-12-18T00:21:14;43.80;;;13.03;;
53801;SDS011;39709;53.334;6.534;2022-12-18T00:23:40;38.67;;;10.82;;
53801;SDS011;39709;53.334;6.534;2022-12-18T00:26:09;61.15;;;16.88;;
53801;SDS011;39709;53.334;6.534;2022-12-18T00:28:42;42.75;;;13.68;;
53801;SDS011;39709;53.334;6.534;2022-12-18T00:31:10;11.65;;;4.18;;
53801;SDS011;39709;53.334;6.534;2022-12-18T00:33:41;8.33;;;2.37;;
53801;SDS011;39709;53.334;6.534;2022-12-18T00:36:09;44.20;;;11.35;;
53801;SDS011;39709;53.334;6.534;2022-12-18T00:38:42;35.80;;;10.13;;
53801;SDS011;39709;53.334;6.534;2022-12-18T00:41:09;17.90;;;6.55;;
53801;SDS011;39709;53.334;6.534;2022-12-18T00:43:37;20.83;;;4.32;;
53801;SDS011;39709;53.334;6.534;2022-12-18T00:46:03;11.07;;;3.60;;
53801;SDS011;39709;53.334;6.534;2022-12-18T00:48:29;11.40;;;4.07;;
53801;SDS011;39709;53.334;6.534;2022-12-18T00:50:55;30.90;;;9.02;;
53801;SDS011;39709;53.334;6.534;2022-12-18T00:53:21;12.53;;;3.77;;
53801;SDS011;39709;53.334;6.534;2022-12-18T00:55:46;8.60;;;2.70;;
53801;SDS011;39709;53.334;6.534;2022-12-18T00:58:13;50.25;;;14.18;;
53801;SDS011;39709;53.334;6.534;2022-12-18T01:00:39;47.10;;;14.43;;
53801;SDS011;39709;53.334;6.534;2022-12-18T01:03:06;19.58;;;6.43;;
53801;SDS011;39709;53.334;6.534;2022-12-18T01:05:32;37.87;;;11.20;;
53801;SDS011;39709;53.334;6.534;2022-12-18T01:07:58;27.38;;;9.45;;
53801;SDS011;39709;53.334;6.534;2022-12-18T01:10:24;10.68;;;4.03;;
53801;SDS011;39709;53.334;6.534;2022-12-18T01:12:51;61.97;;;17.90;;
53801;SDS011;39709;53.334;6.534;2022-12-18T01:15:17;7.82;;;2.53;;
53801;SDS011;39709;53.334;6.534;2022-12-18T01:17:45;14.15;;;3.72;;
53801;SDS011;39709;53.334;6.534;2022-12-18T01:20:11;21.08;;;6.75;;
53801;SDS011;39709;53.334;6.534;2022-12-18T01:22:38;17.23;;;4.65;;
53801;SDS011;39709;53.334;6.534;2022-12-18T01:25:04;69.73;;;17.97;;
53801;SDS011;39709;53.334;6.534;2022-12-18T01:27:30;21.60;;;7.07;;
53801;SDS011;39709;53.334;6.534;2022-12-18T01:29:58;69.63;;;18.90;;
53801;SDS011;39709;53.334;6.534;2022-12-18T01:32:23;9.93;;;2.87;;
53801;SDS011;39709;53.334;6.534;2022-12-18T01:34:49;69.82;;;19.95;;
53801;SDS011;39709;53.334;6.534;2022-12-18T01:37:15;58.00;;;14.83;;
53801;SDS011;39709;53.334;6.534;2022-12-18T01:39:40;22.38;;;8.10;;
53801;SDS011;39709;53.334;6.534;2022-12-18T01:42:13;83.53;;;20.23;;
53801;SDS011;39709;53.334;6.534;2022-12-18T01:47:18;46.38;;;11.35;;
53801;SDS011;39709;53.334;6.534;2022-12-18T01:49:57;15.27;;;4.18;;
53801;SDS011;39709;53.334;6.534;2022-12-18T01:52:29;9.87;;;2.50;;
53801;SDS011;39709;53.334;6.534;2022-12-18T01:54:57;15.70;;;4.18;;
53801;SDS011;39709;53.334;6.534;2022-12-18T01:57:25;63.67;;;16.13;;
53801;SDS011;39709;53.334;6.534;2022-12-18T01:59:53;30.15;;;7.72;;
53801;SDS011;39709;53.334;6.534;2022-12-18T02:02:22;40.42;;;12.07;;
53801;SDS011;39709;53.334;6.534;2022-12-18T02:04:48;76.77;;;19.30;;
53801;SDS011;39709;53.334;6.534;2022-12-18T02:07:20;22.10;;;7.32;;
53801;SDS011;39709;53.334;6.534;2022-12-18T02:10:04;15.35;;;5.70;;
53801;SDS011;39709;53.334;6.534;2022-12-18T02:15:20;63.47;;;17.77;;
53801;SDS011;39709;53.334;6.534;2022-12-18T02:18:08;55.42;;;17.25;;
53801;SDS011;39709;53.334;6.534;2022-12-18T02:20:41;30.70;;;9.93;;
53801;SDS011;39709;53.334;6.534;2022-12-18T02:28:45;39.92;;;12.98;;
53801;SDS011;39709;53.334;6.534;2022-12-18T02:31:27;77.43;;;20.95;;
53801;SDS011;39709;53.334;6.534;2022-12-18T02:33:55;85.97;;;21.77;;
53801;SDS011;39709;53.334;6.534;2022-12-18T02:36:24;90.72;;;22.95;;
53801;SDS011;39709;53.334;6.534;2022-12-18T02:38:52;88.65;;;22.00;;
53801;SDS011;39709;53.334;6.534;2022-12-18T02:41:19;82.03;;;21.05;;
53801;SDS011;39709;53.334;6.534;2022-12-18T02:43:58;91.97;;;22.05;;
53801;SDS011;39709;53.334;6.534;2022-12-18T02:46:41;78.55;;;19.90;;
53801;SDS011;39709;53.334;6.534;2022-12-18T02:51:55;85.13;;;21.77;;
53801;SDS011;39709;53.334;6.534;2022-12-18T02:57:49;89.00;;;21.27;;
53801;SDS011;39709;53.334;6.534;2022-12-18T03:00:24;96.07;;;21.98;;
53801;SDS011;39709;53.334;6.534;2022-12-18T03:03:03;97.57;;;23.05;;
53801;SDS011;39709;53.334;6.534;2022-12-18T03:06:14;94.47;;;23.05;;
53801;SDS011;39709;53.334;6.534;2022-12-18T03:08:41;93.68;;;22.55;;
53801;SDS011;39709;53.334;6.534;2022-12-18T03:11:12;84.70;;;21.38;;
53801;SDS011;39709;53.334;6.534;2022-12-18T03:13:39;97.10;;;23.17;;
53801;SDS011;39709;53.334;6.534;2022-12-18T03:16:23;70.40;;;18.55;;
53801;SDS011;39709;53.334;6.534;2022-12-18T03:18:57;79.85;;;20.75;;
53801;SDS011;39709;53.334;6.534;2022-12-18T03:21:28;87.00;;;22.30;;
53801;SDS011;39709;53.334;6.534;2022-12-18T03:23:59;95.85;;;23.30;;
53801;SDS011;39709;53.334;6.534;2022-12-18T03:26:26;96.88;;;24.42;;
53801;SDS011;39709;53.334;6.534;2022-12-18T03:28:53;90.63;;;23.05;;
53801;SDS011;39709;53.334;6.534;2022-12-18T03:31:23;87.95;;;24.88;;
53801;SDS011;39709;53.334;6.534;2022-12-18T03:33:52;87.38;;;21.98;;
53801;SDS011;39709;53.334;6.534;2022-12-18T03:36:18;99.25;;;24.48;;
53801;SDS011;39709;53.334;6.534;2022-12-18T03:38:44;85.07;;;24.33;;
53801;SDS011;39709;53.334;6.534;2022-12-18T03:44:07;89.85;;;22.65;;
53801;SDS011;39709;53.334;6.534;2022-12-18T03:46:52;99.50;;;23.50;;
53801;SDS011;39709;53.334;6.534;2022-12-18T03:49:35;80.63;;;22.97;;
53801;SDS011;39709;53.334;6.534;2022-12-18T03:52:21;93.28;;;23.05;;
53801;SDS011;39709;53.334;6.534;2022-12-18T03:54:52;87.45;;;23.48;;
53801;SDS011;39709;53.334;6.534;2022-12-18T03:57:20;89.00;;;23.08;;
53801;SDS011;39709;53.334;6.534;2022-12-18T03:59:53;90.88;;;22.77;;
53801;SDS011;39709;53.334;6.534;2022-12-18T04:02:22;79.73;;;23.07;;
53801;SDS011;39709;53.334;6.534;2022-12-18T04:04:50;91.35;;;23.45;;
53801;SDS011;39709;53.334;6.534;2022-12-18T04:07:18;91.30;;;23.08;;
53801;SDS011;39709;53.334;6.534;2022-12-18T04:09:46;81.38;;;22.65;;
53801;SDS011;39709;53.334;6.534;2022-12-18T04:12:13;92.40;;;23.05;;
53801;SDS011;39709;53.334;6.534;2022-12-18T04:14:39;81.20;;;22.13;;
53801;SDS011;39709;53.334;6.534;2022-12-18T04:17:05;88.63;;;21.33;;
53801;SDS011;39709;53.334;6.534;2022-12-18T04:19:30;81.93;;;20.67;;
53801;SDS011;39709;53.334;6.534;2022-12-18T04:21:56;91.25;;;24.05;;
53801;SDS011;39709;53.334;6.534;2022-12-18T04:24:22;88.83;;;22.20;;
53801;SDS011;39709;53.334;6.534;2022-12-18T04:26:47;82.38;;;22.88;;
53801;SDS011;39709;53.334;6.534;2022-12-18T04:29:13;84.53;;;22.02;;
53801;SDS011;39709;53.334;6.534;2022-12-18T04:31:39;73.17;;;22.50;;
53801;SDS011;39709;53.334;6.534;2022-12-18T04:34:04;76.35;;;22.10;;
53801;SDS011;39709;53.334;6.534;2022-12-18T04:36:30;80.33;;;22.87;;
53801;SDS011;39709;53.334;6.534;2022-12-18T04:38:56;82.40;;;20.85;;
53801;SDS011;39709;53.334;6.534;2022-12-18T04:41:21;72.37;;;21.93;;
53801;SDS011;39709;53.334;6.534;2022-12-18T04:43:47;73.43;;;19.47;;
53801;SDS011;39709;53.334;6.534;2022-12-18T04:46:13;70.38;;;21.48;;
53801;SDS011;39709;53.334;6.534;2022-12-18T04:48:38;80.30;;;20.47;;
53801;SDS011;39709;53.334;6.534;2022-12-18T04:51:04;74.30;;;20.63;;
53801;SDS011;39709;53.334;6.534;2022-12-18T04:53:31;62.58;;;16.42;;
53801;SDS011;39709;53.334;6.534;2022-12-18T04:56:08;64.80;;;19.02;;
53801;SDS011;39709;53.334;6.534;2022-12-18T04:58:39;70.05;;;21.73;;
53801;SDS011;39709;53.334;6.534;2022-12-18T05:01:06;79.75;;;22.63;;
53801;SDS011;39709;53.334;6.534;2022-12-18T05:03:33;50.10;;;14.25;;
53801;SDS011;39709;53.334;6.534;2022-12-18T05:05:59;32.92;;;9.63;;
53801;SDS011;39709;53.334;6.534;2022-12-18T05:08:25;65.85;;;19.35;;
53801;SDS011;39709;53.334;6.534;2022-12-18T05:11:01;60.90;;;19.00;;
53801;SDS011;39709;53.334;6.534;2022-12-18T05:13:28;67.82;;;18.77;;
53801;SDS011;39709;53.334;6.534;2022-12-18T05:15:55;62.60;;;18.27;;
53801;SDS011;39709;53.334;6.534;2022-12-18T05:18:21;47.63;;;15.43;;
53801;SDS011;39709;53.334;6.534;2022-12-18T05:20:51;50.80;;;15.80;;
53801;SDS011;39709;53.334;6.534;2022-12-18T05:23:18;56.90;;;17.70;;
53801;SDS011;39709;53.334;6.534;2022-12-18T05:25:54;50.30;;;13.82;;
53801;SDS011;39709;53.334;6.534;2022-12-18T05:28:21;68.47;;;20.52;;
53801;SDS011;39709;53.334;6.534;2022-12-18T05:30:48;63.00;;;21.07;;
53801;SDS011;39709;53.334;6.534;2022-12-18T05:33:18;68.90;;;19.00;;
53801;SDS011;39709;53.334;6.534;2022-12-18T05:35:50;62.53;;;20.88;;
53801;SDS011;39709;53.334;6.534;2022-12-18T05:38:17;65.72;;;21.80;;
53801;SDS011;39709;53.334;6.534;2022-12-18T05:40:43;67.18;;;19.67;;
53801;SDS011;39709;53.334;6.534;2022-12-18T05:43:09;67.03;;;21.35;;
53801;SDS011;39709;53.334;6.534;2022-12-18T05:45:39;69.22;;;20.27;;
53801;SDS011;39709;53.334;6.534;2022-12-18T05:48:05;68.72;;;20.67;;
53801;SDS011;39709;53.334;6.534;2022-12-18T05:50:41;72.72;;;20.55;;
53801;SDS011;39709;53.334;6.534;2022-12-18T05:53:08;67.75;;;20.55;;
53801;SDS011;39709;53.334;6.534;2022-12-18T05:55:37;67.38;;;19.65;;
53801;SDS011;39709;53.334;6.534;2022-12-18T05:58:04;68.53;;;20.35;;
53801;SDS011;39709;53.334;6.534;2022-12-18T06:00:32;73.55;;;19.95;;
53801;SDS011;39709;53.334;6.534;2022-12-18T06:02:59;69.73;;;20.17;;
53801;SDS011;39709;53.334;6.534;2022-12-18T06:05:25;64.70;;;20.30;;
53801;SDS011;39709;53.334;6.534;2022-12-18T06:07:51;76.05;;;19.92;;
53801;SDS011;39709;53.334;6.534;2022-12-18T06:10:17;65.17;;;20.00;;
53801;SDS011;39709;53.334;6.534;2022-12-18T06:12:43;62.85;;;19.92;;
53801;SDS011;39709;53.334;6.534;2022-12-18T06:15:09;65.63;;;19.60;;
53801;SDS011;39709;53.334;6.534;2022-12-18T06:17:35;62.67;;;18.70;;
53801;SDS011;39709;53.334;6.534;2022-12-18T06:20:00;60.55;;;18.55;;
53801;SDS011;39709;53.334;6.534;2022-12-18T06:22:26;54.80;;;15.97;;
53801;SDS011;39709;53.334;6.534;2022-12-18T06:24:52;60.78;;;18.52;;
53801;SDS011;39709;53.334;6.534;2022-12-18T06:27:18;68.22;;;19.15;;
53801;SDS011;39709;53.334;6.534;2022-12-18T06:29:44;64.43;;;19.97;;
53801;SDS011;39709;53.334;6.534;2022-12-18T06:32:10;58.28;;;18.60;;
53801;SDS011;39709;53.334;6.534;2022-12-18T06:34:39;65.63;;;18.88;;
53801;SDS011;39709;53.334;6.534;2022-12-18T06:37:04;62.50;;;19.27;;
53801;SDS011;39709;53.334;6.534;2022-12-18T06:39:30;68.30;;;20.33;;
53801;SDS011;39709;53.334;6.534;2022-12-18T06:41:56;62.40;;;18.67;;
53801;SDS011;39709;53.334;6.534;2022-12-18T06:44:21;57.72;;;18.60;;
53801;SDS011;39709;53.334;6.534;2022-12-18T06:46:47;55.90;;;18.63;;
53801;SDS011;39709;53.334;6.534;2022-12-18T06:49:13;57.88;;;19.15;;
53801;SDS011;39709;53.334;6.534;2022-12-18T06:51:38;59.60;;;18.63;;
53801;SDS011;39709;53.334;6.534;2022-12-18T06:54:04;60.40;;;19.33;;
53801;SDS011;39709;53.334;6.534;2022-12-18T06:56:30;60.03;;;19.57;;
53801;SDS011;39709;53.334;6.534;2022-12-18T06:58:56;56.40;;;17.15;;
53801;SDS011;39709;53.334;6.534;2022-12-18T07:01:22;58.77;;;19.10;;
53801;SDS011;39709;53.334;6.534;2022-12-18T07:03:51;56.88;;;17.60;;
53801;SDS011;39709;53.334;6.534;2022-12-18T07:06:19;53.28;;;18.23;;
53801;SDS011;39709;53.334;6.534;2022-12-18T07:08:47;59.83;;;18.35;;
53801;SDS011;39709;53.334;6.534;2022-12-18T07:11:13;56.75;;;16.85;;
53801;SDS011;39709;53.334;6.534;2022-12-18T07:13:39;53.63;;;17.45;;
53801;SDS011;39709;53.334;6.534;2022-12-18T07:16:06;56.17;;;18.48;;
53801;SDS011;39709;53.334;6.534;2022-12-18T07:18:36;53.85;;;17.98;;
53801;SDS011;39709;53.334;6.534;2022-12-18T07:21:03;55.47;;;17.83;;
53801;SDS011;39709;53.334;6.534;2022-12-18T07:23:33;56.42;;;18.55;;
53801;SDS011;39709;53.334;6.534;2022-12-18T07:26:00;50.67;;;16.88;;
53801;SDS011;39709;53.334;6.534;2022-12-18T07:28:27;57.47;;;16.98;;
53801;SDS011;39709;53.334;6.534;2022-12-18T07:30:53;48.47;;;16.27;;
53801;SDS011;39709;53.334;6.534;2022-12-18T07:33:19;46.05;;;15.95;;
53801;SDS011;39709;53.334;6.534;2022-12-18T07:35:44;45.50;;;17.10;;
53801;SDS011;39709;53.334;6.534;2022-12-18T07:38:10;52.85;;;18.08;;
53801;SDS011;39709;53.334;6.534;2022-12-18T07:40:36;53.20;;;16.73;;
53801;SDS011;39709;53.334;6.534;2022-12-18T07:43:01;50.27;;;17.17;;
53801;SDS011;39709;53.334;6.534;2022-12-18T07:45:27;52.70;;;17.98;;
53801;SDS011;39709;53.334;6.534;2022-12-18T07:47:53;50.70;;;17.93;;
53801;SDS011;39709;53.334;6.534;2022-12-18T07:50:18;49.63;;;16.88;;
53801;SDS011;39709;53.334;6.534;2022-12-18T07:52:44;50.60;;;17.90;;
53801;SDS011;39709;53.334;6.534;2022-12-18T07:55:10;54.73;;;17.87;;
53801;SDS011;39709;53.334;6.534;2022-12-18T07:57:35;48.63;;;16.50;;
53801;SDS011;39709;53.334;6.534;2022-12-18T08:00:01;51.33;;;16.67;;
53801;SDS011;39709;53.334;6.534;2022-12-18T08:02:29;47.58;;;16.70;;
53801;SDS011;39709;53.334;6.534;2022-12-18T08:04:56;45.13;;;16.55;;
53801;SDS011;39709;53.334;6.534;2022-12-18T08:07:21;50.33;;;17.23;;
53801;SDS011;39709;53.334;6.534;2022-12-18T08:09:47;51.20;;;16.30;;
53801;SDS011;39709;53.334;6.534;2022-12-18T08:12:12;52.43;;;17.10;;
53801;SDS011;39709;53.334;6.534;2022-12-18T08:14:38;49.30;;;17.37;;
53801;SDS011;39709;53.334;6.534;2022-12-18T08:17:04;51.38;;;17.95;;
53801;SDS011;39709;53.334;6.534;2022-12-18T08:19:30;45.53;;;17.13;;
53801;SDS011;39709;53.334;6.534;2022-12-18T08:21:55;50.73;;;18.47;;
53801;SDS011;39709;53.334;6.534;2022-12-18T08:24:22;45.85;;;18.88;;
53801;SDS011;39709;53.334;6.534;2022-12-18T08:26:47;46.53;;;18.27;;
53801;SDS011;39709;53.334;6.534;2022-12-18T08:29:13;46.73;;;17.47;;
53801;SDS011;39709;53.334;6.534;2022-12-18T08:31:40;43.92;;;17.45;;
53801;SDS011;39709;53.334;6.534;2022-12-18T08:34:06;52.77;;;22.20;;
53801;SDS011;39709;53.334;6.534;2022-12-18T08:36:32;48.60;;;21.45;;
53801;SDS011;39709;53.334;6.534;2022-12-18T08:38:58;53.47;;;23.25;;
53801;SDS011;39709;53.334;6.534;2022-12-18T08:41:24;51.70;;;21.60;;
53801;SDS011;39709;53.334;6.534;2022-12-18T08:43:50;52.40;;;23.08;;
53801;SDS011;39709;53.334;6.534;2022-12-18T08:46:38;53.90;;;21.83;;
53801;SDS011;39709;53.334;6.534;2022-12-18T08:49:06;52.55;;;21.65;;
53801;SDS011;39709;53.334;6.534;2022-12-18T08:51:32;52.17;;;22.33;;
53801;SDS011;39709;53.334;6.534;2022-12-18T08:53:59;46.45;;;18.58;;
53801;SDS011;39709;53.334;6.534;2022-12-18T08:56:25;50.25;;;18.70;;
53801;SDS011;39709;53.334;6.534;2022-12-18T08:58:51;42.08;;;16.38;;
53801;SDS011;39709;53.334;6.534;2022-12-18T09:01:18;46.33;;;16.17;;
53801;SDS011;39709;53.334;6.534;2022-12-18T09:03:44;46.63;;;17.38;;
53801;SDS011;39709;53.334;6.534;2022-12-18T09:06:13;46.00;;;17.85;;
53801;SDS011;39709;53.334;6.534;2022-12-18T09:08:41;47.83;;;17.63;;
53801;SDS011;39709;53.334;6.534;2022-12-18T09:11:19;43.78;;;17.48;;
53801;SDS011;39709;53.334;6.534;2022-12-18T09:13:47;43.67;;;18.00;;
53801;SDS011;39709;53.334;6.534;2022-12-18T09:16:13;41.75;;;17.15;;
53801;SDS011;39709;53.334;6.534;2022-12-18T09:18:38;42.03;;;17.23;;
53801;SDS011;39709;53.334;6.534;2022-12-18T09:21:15;44.20;;;16.30;;
53801;SDS011;39709;53.334;6.534;2022-12-18T09:23:49;41.92;;;16.27;;
53801;SDS011;39709;53.334;6.534;2022-12-18T09:26:15;39.08;;;16.98;;
53801;SDS011;39709;53.334;6.534;2022-12-18T09:28:41;42.80;;;17.70;;
53801;SDS011;39709;53.334;6.534;2022-12-18T09:31:08;43.45;;;17.15;;
53801;SDS011;39709;53.334;6.534;2022-12-18T09:33:35;41.20;;;17.50;;
53801;SDS011;39709;53.334;6.534;2022-12-18T09:36:02;38.90;;;16.60;;
53801;SDS011;39709;53.334;6.534;2022-12-18T09:38:29;40.78;;;16.20;;
53801;SDS011;39709;53.334;6.534;2022-12-18T09:40:57;36.03;;;16.20;;
53801;SDS011;39709;53.334;6.534;2022-12-18T09:43:44;43.08;;;19.05;;
53801;SDS011;39709;53.334;6.534;2022-12-18T09:46:17;41.03;;;19.90;;
53801;SDS011;39709;53.334;6.534;2022-12-18T09:48:51;41.78;;;18.88;;
53801;SDS011;39709;53.334;6.534;2022-12-18T09:51:24;40.97;;;19.42;;
53801;SDS011;39709;53.334;6.534;2022-12-18T09:54:05;37.00;;;17.03;;
53801;SDS011;39709;53.334;6.534;2022-12-18T09:56:38;37.53;;;15.05;;
53801;SDS011;39709;53.334;6.534;2022-12-18T09:59:09;34.67;;;14.07;;
53801;SDS011;39709;53.334;6.534;2022-12-18T10:01:44;32.90;;;13.82;;
53801;SDS011;39709;53.334;6.534;2022-12-18T10:04:09;30.67;;;13.40;;
53801;SDS011;39709;53.334;6.534;2022-12-18T10:06:38;32.40;;;14.30;;
53801;SDS011;39709;53.334;6.534;2022-12-18T10:09:29;35.72;;;14.68;;
53801;SDS011;39709;53.334;6.534;2022-12-18T10:14:51;32.23;;;13.00;;
53801;SDS011;39709;53.334;6.534;2022-12-18T10:22:54;29.63;;;12.93;;
53801;SDS011;39709;53.334;6.534;2022-12-18T10:25:31;28.40;;;12.35;;
53801;SDS011;39709;53.334;6.534;2022-12-18T10:28:12;29.02;;;13.55;;
53801;SDS011;39709;53.334;6.534;2022-12-18T10:30:40;31.65;;;11.98;;
53801;SDS011;39709;53.334;6.534;2022-12-18T10:33:17;22.75;;;10.20;;
53801;SDS011;39709;53.334;6.534;2022-12-18T10:35:44;27.92;;;11.23;;
53801;SDS011;39709;53.334;6.534;2022-12-18T10:40:48;25.73;;;11.10;;
53801;SDS011;39709;53.334;6.534;2022-12-18T10:43:27;29.67;;;10.43;;
53801;SDS011;39709;53.334;6.534;2022-12-18T10:48:33;17.50;;;7.13;;
53801;SDS011;39709;53.334;6.534;2022-12-18T10:54:05;19.50;;;6.97;;
53801;SDS011;39709;53.334;6.534;2022-12-18T10:56:43;22.52;;;9.52;;
53801;SDS011;39709;53.334;6.534;2022-12-18T10:59:10;19.33;;;8.93;;
53801;SDS011;39709;53.334;6.534;2022-12-18T11:01:51;11.65;;;3.72;;
53801;SDS011;39709;53.334;6.534;2022-12-18T11:07:02;15.73;;;5.55;;
53801;SDS011;39709;53.334;6.534;2022-12-18T11:14:42;19.10;;;7.97;;
53801;SDS011;39709;53.334;6.534;2022-12-18T11:19:55;22.90;;;9.18;;
53801;SDS011;39709;53.334;6.534;2022-12-18T11:22:27;20.63;;;9.32;;
53801;SDS011;39709;53.334;6.534;2022-12-18T11:25:01;17.47;;;7.63;;
53801;SDS011;39709;53.334;6.534;2022-12-18T11:27:30;20.65;;;8.82;;
53801;SDS011;39709;53.334;6.534;2022-12-18T11:30:13;21.00;;;9.38;;
53801;SDS011;39709;53.334;6.534;2022-12-18T11:32:49;20.52;;;9.35;;
53801;SDS011;39709;53.334;6.534;2022-12-18T11:37:53;22.57;;;9.90;;
53801;SDS011;39709;53.334;6.534;2022-12-18T11:40:35;15.10;;;5.50;;
53801;SDS011;39709;53.334;6.534;2022-12-18T11:43:14;19.88;;;8.75;;
53801;SDS011;39709;53.334;6.534;2022-12-18T11:45:49;19.95;;;10.10;;
53801;SDS011;39709;53.334;6.534;2022-12-18T11:48:49;23.63;;;9.02;;
53801;SDS011;39709;53.334;6.534;2022-12-18T11:51:26;14.57;;;6.60;;
53801;SDS011;39709;53.334;6.534;2022-12-18T11:53:57;6.38;;;1.75;;
53801;SDS011;39709;53.334;6.534;2022-12-18T11:56:29;25.65;;;7.35;;
53801;SDS011;39709;53.334;6.534;2022-12-18T12:02:17;19.48;;;8.70;;
53801;SDS011;39709;53.334;6.534;2022-12-18T12:12:50;21.92;;;8.65;;
53801;SDS011;39709;53.334;6.534;2022-12-18T12:18:25;17.45;;;6.43;;
53801;SDS011;39709;53.334;6.534;2022-12-18T12:29:14;13.23;;;4.07;;
53801;SDS011;39709;53.334;6.534;2022-12-18T12:34:23;6.80;;;1.93;;
53801;SDS011;39709;53.334;6.534;2022-12-18T12:37:05;14.02;;;4.95;;
53801;SDS011;39709;53.334;6.534;2022-12-18T12:39:45;11.23;;;4.53;;
53801;SDS011;39709;53.334;6.534;2022-12-18T12:42:20;5.53;;;1.42;;
53801;SDS011;39709;53.334;6.534;2022-12-18T12:45:34;9.23;;;3.33;;
53801;SDS011;39709;53.334;6.534;2022-12-18T12:48:13;8.73;;;2.63;;
53801;SDS011;39709;53.334;6.534;2022-12-18T12:50:45;8.23;;;2.65;;
53801;SDS011;39709;53.334;6.534;2022-12-18T12:53:15;5.38;;;1.35;;
53801;SDS011;39709;53.334;6.534;2022-12-18T12:55:47;14.85;;;6.20;;
53801;SDS011;39709;53.334;6.534;2022-12-18T13:09:09;8.18;;;2.67;;
53801;SDS011;39709;53.334;6.534;2022-12-18T13:14:36;11.80;;;4.43;;
53801;SDS011;39709;53.334;6.534;2022-12-18T13:19:47;11.75;;;3.65;;
53801;SDS011;39709;53.334;6.534;2022-12-18T13:22:46;9.63;;;3.35;;
53801;SDS011;39709;53.334;6.534;2022-12-18T13:25:26;10.20;;;3.55;;
53801;SDS011;39709;53.334;6.534;2022-12-18T13:27:59;8.25;;;2.75;;
53801;SDS011;39709;53.334;6.534;2022-12-18T13:33:45;6.90;;;2.40;;
53801;SDS011;39709;53.334;6.534;2022-12-18T13:48:30;12.15;;;4.32;;
53801;SDS011;39709;53.334;6.534;2022-12-18T13:51:09;11.57;;;4.70;;
53801;SDS011;39709;53.334;6.534;2022-12-18T13:53:38;11.90;;;5.05;;
53801;SDS011;39709;53.334;6.534;2022-12-18T13:56:08;11.90;;;4.75;;
53801;SDS011;39709;53.334;6.534;2022-12-18T13:58:34;8.77;;;2.20;;
53801;SDS011;39709;53.334;6.534;2022-12-18T14:00:59;15.20;;;4.13;;
53801;SDS011;39709;53.334;6.534;2022-12-18T14:03:27;10.65;;;4.07;;
53801;SDS011;39709;53.334;6.534;2022-12-18T14:06:04;13.23;;;4.87;;
53801;SDS011;39709;53.334;6.534;2022-12-18T14:08:33;12.95;;;4.72;;
53801;SDS011;39709;53.334;6.534;2022-12-18T14:11:03;13.93;;;5.10;;
53801;SDS011;39709;53.334;6.534;2022-12-18T14:13:31;11.80;;;4.90;;
53801;SDS011;39709;53.334;6.534;2022-12-18T14:16:01;12.20;;;4.63;;
53801;SDS011;39709;53.334;6.534;2022-12-18T14:18:38;12.63;;;4.53;;
53801;SDS011;39709;53.334;6.534;2022-12-18T14:21:15;13.25;;;4.40;;
53801;SDS011;39709;53.334;6.534;2022-12-18T14:24:02;10.90;;;3.75;;
53801;SDS011;39709;53.334;6.534;2022-12-18T14:26:29;10.45;;;4.03;;
53801;SDS011;39709;53.334;6.534;2022-12-18T14:28:56;11.75;;;4.05;;
53801;SDS011;39709;53.334;6.534;2022-12-18T14:31:42;12.10;;;4.33;;
53801;SDS011;39709;53.334;6.534;2022-12-18T14:34:14;9.52;;;3.90;;
53801;SDS011;39709;53.334;6.534;2022-12-18T14:36:53;13.15;;;4.40;;
53801;SDS011;39709;53.334;6.534;2022-12-18T14:39:20;12.30;;;3.70;;
53801;SDS011;39709;53.334;6.534;2022-12-18T14:41:48;12.05;;;4.38;;
53801;SDS011;39709;53.334;6.534;2022-12-18T14:44:14;8.70;;;2.28;;
53801;SDS011;39709;53.334;6.534;2022-12-18T14:46:41;7.80;;;1.70;;
53801;SDS011;39709;53.334;6.534;2022-12-18T14:49:23;7.43;;;2.17;;
53801;SDS011;39709;53.334;6.534;2022-12-18T14:52:00;12.60;;;4.47;;
53801;SDS011;39709;53.334;6.534;2022-12-18T14:54:28;5.93;;;1.70;;
53801;SDS011;39709;53.334;6.534;2022-12-18T14:59:26;5.90;;;2.03;;
53801;SDS011;39709;53.334;6.534;2022-12-18T15:04:38;9.27;;;3.20;;
53801;SDS011;39709;53.334;6.534;2022-12-18T15:07:09;4.70;;;1.17;;
53801;SDS011;39709;53.334;6.534;2022-12-18T15:12:36;13.80;;;4.67;;
53801;SDS011;39709;53.334;6.534;2022-12-18T15:15:05;6.03;;;1.98;;
53801;SDS011;39709;53.334;6.534;2022-12-18T15:18:11;11.18;;;3.53;;
53801;SDS011;39709;53.334;6.534;2022-12-18T15:23:17;5.20;;;1.85;;
53801;SDS011;39709;53.334;6.534;2022-12-18T15:25:49;2.07;;;0.50;;
53801;SDS011;39709;53.334;6.534;2022-12-18T15:28:23;3.00;;;0.82;;
53801;SDS011;39709;53.334;6.534;2022-12-18T15:33:31;6.60;;;2.08;;
53801;SDS011;39709;53.334;6.534;2022-12-18T15:35:58;6.53;;;1.48;;
53801;SDS011;39709;53.334;6.534;2022-12-18T15:38:34;2.67;;;0.47;;
53801;SDS011;39709;53.334;6.534;2022-12-18T15:41:00;5.45;;;1.02;;
53801;SDS011;39709;53.334;6.534;2022-12-18T15:43:30;4.47;;;1.35;;
53801;SDS011;39709;53.334;6.534;2022-12-18T15:46:06;9.68;;;3.08;;
53801;SDS011;39709;53.334;6.534;2022-12-18T15:48:39;2.95;;;0.77;;
53801;SDS011;39709;53.334;6.534;2022-12-18T15:53:43;4.32;;;1.10;;
53801;SDS011;39709;53.334;6.534;2022-12-18T15:56:10;6.75;;;1.17;;
53801;SDS011;39709;53.334;6.534;2022-12-18T15:58:55;2.85;;;0.70;;
53801;SDS011;39709;53.334;6.534;2022-12-18T16:01:21;4.17;;;0.97;;
53801;SDS011;39709;53.334;6.534;2022-12-18T16:03:48;4.63;;;0.85;;
53801;SDS011;39709;53.334;6.534;2022-12-18T16:06:14;13.88;;;5.60;;
53801;SDS011;39709;53.334;6.534;2022-12-18T16:08:40;11.65;;;4.45;;
53801;SDS011;39709;53.334;6.534;2022-12-18T16:11:08;3.05;;;0.50;;
53801;SDS011;39709;53.334;6.534;2022-12-18T16:14:03;17.38;;;8.70;;
53801;SDS011;39709;53.334;6.534;2022-12-18T16:16:29;17.08;;;6.55;;
53801;SDS011;39709;53.334;6.534;2022-12-18T16:18:55;19.65;;;8.40;;
53801;SDS011;39709;53.334;6.534;2022-12-18T16:21:20;15.37;;;5.97;;
53801;SDS011;39709;53.334;6.534;2022-12-18T16:23:46;21.10;;;8.93;;
53801;SDS011;39709;53.334;6.534;2022-12-18T16:26:12;18.20;;;6.80;;
53801;SDS011;39709;53.334;6.534;2022-12-18T16:28:37;17.30;;;7.77;;
53801;SDS011;39709;53.334;6.534;2022-12-18T16:31:03;16.23;;;8.20;;
53801;SDS011;39709;53.334;6.534;2022-12-18T16:33:28;9.83;;;3.83;;
53801;SDS011;39709;53.334;6.534;2022-12-18T16:35:54;10.30;;;4.53;;
53801;SDS011;39709;53.334;6.534;2022-12-18T16:38:20;19.08;;;8.65;;
53801;SDS011;39709;53.334;6.534;2022-12-18T16:40:45;14.17;;;6.63;;
53801;SDS011;39709;53.334;6.534;2022-12-18T16:43:30;15.50;;;6.15;;
53801;SDS011;39709;53.334;6.534;2022-12-18T16:45:57;12.13;;;5.35;;
53801;SDS011;39709;53.334;6.534;2022-12-18T16:48:23;12.25;;;4.57;;